METAR Data
IDs: Format: Raw Decoded Include TAF

Data at: 0442 UTC 24 Sep 2020

KDTW 240353Z 27003KT 9SM BKN250 18/13 A2999 RMK AO2 SLP154 T01780133

KDTW 240305Z 2403/2506 27004KT P6SM BKN250
  FM240900 VRB04KT 6SM HZ BKN200
  FM241300 23006KT P6SM FEW200
  FM241900 23010KT P6SM FEW200